Time;durP1;ratioP1;P1;durP2;ratioP2;P2;SDS_P1;SDS_P2;PMS_P1;PMS_P2;Temp;Humidity;BMP_temperature;BMP_pressure;BME280_temperature;BME280_humidity;BME280_pressure;Samples;Min_cycle;Max_cycle;Signal;HPM_P1;HPM_P2
2023/04/04 00:01:40;;;;;;;2.15;1.13;;;0.50;99.90;;;;;;5029575;28;20049;-77
2023/04/04 00:04:06;;;;;;;2.72;0.85;;;0.50;99.90;;;;;;5033602;28;20471;-77
2023/04/04 00:06:33;;;;;;;2.38;0.77;;;0.50;99.90;;;;;;5021265;28;20050;-77
2023/04/04 00:08:59;;;;;;;2.88;0.93;;;0.40;99.90;;;;;;5033381;28;20394;-78
2023/04/04 00:11:26;;;;;;;3.72;1.10;;;0.70;99.90;;;;;;5035440;28;20030;-77
2023/04/04 00:13:52;;;;;;;1.10;0.63;;;0.70;99.90;;;;;;5045724;28;20045;-77
2023/04/04 00:16:18;;;;;;;4.10;1.75;;;0.60;99.90;;;;;;5034729;28;20026;-78
2023/04/04 00:18:44;;;;;;;3.55;0.90;;;0.40;99.90;;;;;;5045586;28;20037;-77
2023/04/04 00:21:10;;;;;;;3.35;1.50;;;0.30;99.90;;;;;;5022737;28;20037;-76
2023/04/04 00:23:36;;;;;;;5.25;1.00;;;0.40;99.90;;;;;;5032968;28;20048;-78
2023/04/04 00:26:02;;;;;;;3.67;1.30;;;0.90;99.90;;;;;;5014400;28;20053;-77
2023/04/04 00:28:29;;;;;;;5.82;1.02;;;0.80;99.90;;;;;;5033947;28;20030;-77
2023/04/04 00:30:55;;;;;;;2.20;0.80;;;0.80;99.90;;;;;;5028580;28;20033;-78
2023/04/04 00:33:22;;;;;;;2.20;0.70;;;0.80;99.90;;;;;;5038343;28;20049;-79
2023/04/04 00:35:48;;;;;;;2.22;0.70;;;0.70;99.90;;;;;;5023321;28;20021;-77
2023/04/04 00:38:14;;;;;;;1.88;0.63;;;0.60;99.90;;;;;;5030514;28;20025;-77
2023/04/04 00:40:46;;;;;;;2.40;0.80;;;0.70;99.90;;;;;;5041074;28;20030;-77
2023/04/04 00:43:13;;;;;;;2.63;1.05;;;0.70;99.90;;;;;;5031027;28;20060;-77
2023/04/04 00:45:40;;;;;;;3.80;1.15;;;0.70;99.90;;;;;;5032446;28;20044;-79
2023/04/04 00:48:07;;;;;;;3.97;1.20;;;0.80;99.90;;;;;;5034580;28;20036;-78
2023/04/04 00:50:33;;;;;;;2.25;0.77;;;0.80;99.90;;;;;;5028647;28;20042;-77
2023/04/04 00:52:59;;;;;;;4.03;1.23;;;0.90;99.90;;;;;;5033451;28;20104;-78
2023/04/04 00:55:26;;;;;;;4.47;1.67;;;0.90;99.90;;;;;;5025178;28;20045;-77
2023/04/04 00:57:52;;;;;;;3.40;1.25;;;1.00;99.90;;;;;;5046565;28;20033;-77
2023/04/04 01:00:19;;;;;;;15.32;8.10;;;0.90;99.90;;;;;;5046561;28;20026;-77
2023/04/04 01:02:46;;;;;;;15.15;5.88;;;0.70;99.90;;;;;;5027824;28;20040;-77
2023/04/04 01:05:12;;;;;;;32.85;16.20;;;0.60;99.90;;;;;;5018273;28;20054;-77
2023/04/04 01:07:40;;;;;;;5.65;2.63;;;0.70;99.90;;;;;;5039666;28;20041;-78
2023/04/04 01:10:08;;;;;;;44.28;20.67;;;0.60;99.90;;;;;;5035539;28;20041;-77
2023/04/04 01:12:34;;;;;;;7.75;4.82;;;0.50;99.90;;;;;;5045967;28;20049;-77
2023/04/04 01:15:01;;;;;;;9.20;4.18;;;0.70;99.90;;;;;;5023538;28;20037;-77
2023/04/04 01:17:30;;;;;;;6.13;2.92;;;0.50;99.90;;;;;;5036870;28;20034;-77
2023/04/04 01:20:13;;;;;;;5.72;2.03;;;0.50;99.90;;;;;;5033904;28;20038;-77
2023/04/04 01:22:47;;;;;;;8.30;1.10;;;0.50;99.90;;;;;;5030882;28;20050;-77
2023/04/04 01:25:15;;;;;;;3.22;0.75;;;0.40;99.90;;;;;;5046541;28;20589;-77
2023/04/04 01:27:45;;;;;;;4.18;1.80;;;0.30;99.90;;;;;;5026586;28;20038;-77
2023/04/04 01:30:16;;;;;;;3.78;0.85;;;0.20;99.90;;;;;;5032388;28;20052;-77
2023/04/04 01:32:55;;;;;;;2.47;0.95;;;0.20;99.90;;;;;;5033138;28;20049;-78
2023/04/04 01:35:42;;;;;;;2.20;0.70;;;-0.10;99.90;;;;;;5030326;28;20048;-80
2023/04/04 01:38:30;;;;;;;4.00;0.90;;;-0.20;99.90;;;;;;5018506;28;20034;-81
2023/04/04 01:41:07;;;;;;;2.35;1.00;;;-0.30;99.90;;;;;;5023019;28;20034;-77
2023/04/04 01:43:36;;;;;;;2.05;1.05;;;-0.40;99.90;;;;;;5024982;28;20049;-78
2023/04/04 01:46:02;;;;;;;1.60;0.63;;;-0.40;99.90;;;;;;5023041;28;20479;-77
2023/04/04 01:48:29;;;;;;;2.08;0.98;;;-0.50;99.90;;;;;;5032119;28;20046;-78
2023/04/04 01:51:00;;;;;;;2.55;1.00;;;-0.60;99.90;;;;;;5022308;28;20053;-78
2023/04/04 01:53:27;;;;;;;2.90;0.80;;;-0.60;99.90;;;;;;5031232;28;20053;-78
2023/04/04 01:55:53;;;;;;;2.55;1.13;;;-0.70;99.90;;;;;;5045619;28;20466;-78
2023/04/04 01:58:21;;;;;;;2.97;1.50;;;-0.90;99.90;;;;;;5040411;28;20065;-77
2023/04/04 02:00:49;;;;;;;2.05;1.00;;;-1.00;99.90;;;;;;5031179;28;20037;-77
2023/04/04 02:03:15;;;;;;;4.32;0.93;;;-1.10;99.90;;;;;;5031728;28;20029;-78
2023/04/04 02:05:41;;;;;;;4.68;1.48;;;-1.20;99.90;;;;;;5029407;28;20505;-77
2023/04/04 02:08:12;;;;;;;4.53;1.30;;;-1.30;99.90;;;;;;5028748;28;20045;-77
2023/04/04 02:10:46;;;;;;;3.72;1.33;;;-1.30;99.90;;;;;;5029951;28;20048;-78
2023/04/04 02:13:13;;;;;;;4.88;1.23;;;-1.40;99.90;;;;;;5026454;28;20046;-77
2023/04/04 02:15:40;;;;;;;6.03;1.23;;;-1.50;99.90;;;;;;5028688;28;20042;-77
2023/04/04 02:18:07;;;;;;;2.05;1.02;;;-1.50;99.90;;;;;;5028081;28;20049;-77
2023/04/04 02:20:33;;;;;;;2.88;0.90;;;-1.50;99.90;;;;;;5015640;28;20049;-82
2023/04/04 02:22:59;;;;;;;2.33;1.00;;;-1.50;99.90;;;;;;5026686;28;20462;-77
2023/04/04 02:25:25;;;;;;;3.13;1.50;;;-1.50;99.90;;;;;;5027010;28;20381;-77
2023/04/04 02:27:52;;;;;;;3.50;1.02;;;-1.60;99.90;;;;;;5027710;28;20033;-79
2023/04/04 02:30:18;;;;;;;3.22;1.40;;;-1.70;99.90;;;;;;5040210;28;20044;-77
2023/04/04 02:32:45;;;;;;;3.05;1.25;;;-1.70;99.90;;;;;;5021276;28;20038;-78
2023/04/04 02:35:18;;;;;;;4.57;1.50;;;-1.60;99.90;;;;;;5026082;28;20057;-77
2023/04/04 02:37:47;;;;;;;5.57;1.35;;;-1.70;99.90;;;;;;5047394;28;20041;-78
2023/04/04 02:40:20;;;;;;;3.13;1.10;;;-1.60;99.90;;;;;;5023634;28;20060;-77
2023/04/04 02:42:46;;;;;;;2.22;1.23;;;-1.50;99.90;;;;;;5017941;28;20052;-77
2023/04/04 02:45:13;;;;;;;2.92;1.15;;;-1.40;99.90;;;;;;5035827;28;20231;-77
2023/04/04 02:47:49;;;;;;;6.28;1.98;;;-1.30;99.90;;;;;;5036983;28;20052;-82
2023/04/04 02:50:16;;;;;;;4.63;1.33;;;-1.30;99.90;;;;;;5022643;28;20045;-77
2023/04/04 02:52:45;;;;;;;2.95;1.40;;;-1.20;99.90;;;;;;5022460;28;20367;-77
2023/04/04 02:55:13;;;;;;;7.60;1.83;;;-1.10;99.90;;;;;;5031189;28;20053;-77
2023/04/04 02:57:41;;;;;;;2.47;1.23;;;-1.20;99.90;;;;;;5032712;28;20048;-76
2023/04/04 03:00:08;;;;;;;3.40;2.20;;;-1.30;99.90;;;;;;5025198;28;20037;-77
2023/04/04 03:02:35;;;;;;;3.38;1.52;;;-1.30;99.90;;;;;;5026068;28;20459;-79
2023/04/04 03:05:01;;;;;;;3.83;1.42;;;-1.40;99.90;;;;;;5020849;28;20049;-79
2023/04/04 03:07:27;;;;;;;5.43;1.65;;;-1.50;99.90;;;;;;5029155;28;20455;-77
2023/04/04 03:09:53;;;;;;;3.72;1.60;;;-1.50;99.90;;;;;;5029458;28;20045;-77
2023/04/04 03:12:20;;;;;;;3.95;1.05;;;-1.50;99.90;;;;;;5023351;28;20034;-78
2023/04/04 03:14:47;;;;;;;4.47;1.20;;;-1.70;99.90;;;;;;5014829;28;20060;-77
2023/04/04 03:17:14;;;;;;;3.22;1.50;;;-1.70;99.90;;;;;;5044646;28;20085;-77
2023/04/04 03:19:44;;;;;;;4.07;1.27;;;-1.80;99.90;;;;;;5031089;28;20052;-77
2023/04/04 03:22:10;;;;;;;3.28;1.55;;;-1.80;99.90;;;;;;5022692;28;20049;-77
2023/04/04 03:24:36;;;;;;;3.85;1.27;;;-1.90;99.90;;;;;;5028665;28;20471;-78
2023/04/04 03:27:02;;;;;;;5.57;2.05;;;-1.80;99.90;;;;;;5027533;28;20029;-77
2023/04/04 03:29:29;;;;;;;4.25;1.88;;;-1.80;99.90;;;;;;5041783;28;20046;-77
2023/04/04 03:31:56;;;;;;;3.08;1.52;;;-1.80;99.90;;;;;;5022453;28;20053;-77
2023/04/04 03:34:23;;;;;;;6.72;1.92;;;-1.90;99.90;;;;;;5028756;28;20049;-76
2023/04/04 03:36:52;;;;;;;3.88;1.83;;;-2.00;99.90;;;;;;5031021;28;20038;-77
2023/04/04 03:39:19;;;;;;;5.40;1.58;;;-2.00;1.00;;;;;;5029113;28;20037;-77
2023/04/04 03:41:46;;;;;;;7.13;2.00;;;-2.10;1.00;;;;;;5028128;28;20077;-77
2023/04/04 03:44:12;;;;;;;3.08;1.20;;;-2.10;1.00;;;;;;5026295;28;20053;-77
2023/04/04 03:46:39;;;;;;;2.30;1.30;;;-2.20;1.00;;;;;;5022705;28;20034;-76
2023/04/04 03:49:05;;;;;;;2.30;1.10;;;-2.30;1.00;;;;;;5027815;28;20045;-77
2023/04/04 03:51:31;;;;;;;3.83;1.80;;;-2.30;1.00;;;;;;5043328;28;20494;-76
2023/04/04 03:53:58;;;;;;;4.68;1.33;;;-2.30;1.00;;;;;;5045199;28;20053;-76
2023/04/04 03:56:24;;;;;;;4.13;1.50;;;-2.30;1.00;;;;;;5033036;28;20048;-75
2023/04/04 03:58:50;;;;;;;2.60;1.45;;;-2.20;1.00;;;;;;5025223;28;20478;-76
2023/04/04 04:01:19;;;;;;;5.15;1.95;;;-2.20;1.00;;;;;;5015968;28;20479;-76
2023/04/04 04:03:46;;;;;;;3.28;1.90;;;-2.30;1.00;;;;;;5036787;28;20037;-80
2023/04/04 04:06:12;;;;;;;4.47;1.60;;;-2.40;1.00;;;;;;5040168;28;20041;-76
2023/04/04 04:08:38;;;;;;;4.72;1.67;;;-2.40;1.00;;;;;;5032418;28;20041;-76
2023/04/04 04:11:07;;;;;;;5.80;2.15;;;-2.40;1.00;;;;;;5021934;28;20037;-77
2023/04/04 04:13:36;;;;;;;6.95;2.05;;;-2.50;1.00;;;;;;5020580;28;20038;-76
2023/04/04 04:16:04;;;;;;;4.30;1.67;;;-2.60;1.00;;;;;;5026377;28;20061;-76
2023/04/04 04:18:31;;;;;;;5.10;1.70;;;-2.60;1.00;;;;;;5021144;28;20025;-76
2023/04/04 04:20:58;;;;;;;5.22;2.05;;;-2.70;1.00;;;;;;5035269;28;20439;-77
2023/04/04 04:23:25;;;;;;;5.90;1.90;;;-2.70;1.00;;;;;;5024198;28;20046;-77
2023/04/04 04:25:52;;;;;;;5.18;1.95;;;-2.80;1.00;;;;;;5043117;28;20053;-80
2023/04/04 04:28:23;;;;;;;4.78;2.17;;;-2.80;1.00;;;;;;5031826;28;20056;-76
2023/04/04 04:30:50;;;;;;;4.45;2.08;;;-2.80;1.00;;;;;;5026574;28;20506;-77
2023/04/04 04:33:20;;;;;;;2.75;1.20;;;-2.90;1.00;;;;;;5026024;28;20038;-77
2023/04/04 04:36:03;;;;;;;5.18;2.38;;;-2.90;1.00;;;;;;5021895;28;20486;-78
2023/04/04 04:38:38;;;;;;;4.95;2.08;;;-2.90;1.00;;;;;;5008466;28;20052;-77
2023/04/04 04:41:05;;;;;;;5.75;1.80;;;-2.90;1.00;;;;;;5018674;28;20045;-77
2023/04/04 04:43:40;;;;;;;2.75;1.77;;;-3.00;1.00;;;;;;5029722;28;20112;-78
2023/04/04 04:46:07;;;;;;;6.75;2.22;;;-3.10;1.00;;;;;;5041652;28;20053;-79
2023/04/04 04:48:34;;;;;;;3.80;2.40;;;-3.10;1.00;;;;;;5027312;28;20513;-77
2023/04/04 04:51:01;;;;;;;6.85;3.13;;;-3.10;1.00;;;;;;5031326;28;20040;-78
2023/04/04 04:53:36;;;;;;;4.30;2.80;;;-3.20;1.00;;;;;;5027681;28;20054;-78
2023/04/04 04:56:04;;;;;;;5.10;2.85;;;-3.10;1.00;;;;;;5045254;28;20415;-77
2023/04/04 04:58:31;;;;;;;4.05;2.60;;;-3.10;1.00;;;;;;5028993;28;20041;-78
2023/04/04 05:00:59;;;;;;;4.72;2.22;;;-3.00;1.00;;;;;;5022066;28;20403;-78
2023/04/04 05:03:34;;;;;;;3.97;2.30;;;-3.10;1.00;;;;;;5026630;28;20057;-78
2023/04/04 05:06:02;;;;;;;4.93;2.58;;;-3.10;1.00;;;;;;5030917;28;20045;-77
2023/04/04 05:08:28;;;;;;;6.60;2.00;;;-3.10;1.00;;;;;;5030983;28;20034;-76
2023/04/04 05:11:04;;;;;;;5.80;2.78;;;-3.00;1.00;;;;;;5022693;28;20042;-77
2023/04/04 05:13:31;;;;;;;5.40;2.40;;;-2.90;1.00;;;;;;5031972;28;20040;-77
2023/04/04 05:15:58;;;;;;;5.90;2.35;;;-2.90;1.00;;;;;;5030264;28;20037;-78
2023/04/04 05:18:26;;;;;;;5.10;2.28;;;-2.80;1.00;;;;;;5043192;28;20049;-78
2023/04/04 05:20:56;;;;;;;5.88;2.58;;;-2.80;1.00;;;;;;5025484;28;20052;-78
2023/04/04 05:23:25;;;;;;;5.75;2.78;;;-2.80;1.00;;;;;;5028434;28;20042;-77
2023/04/04 05:25:52;;;;;;;7.43;3.42;;;-2.90;1.00;;;;;;5025921;28;20042;-78
2023/04/04 05:28:20;;;;;;;4.82;2.92;;;-2.80;1.00;;;;;;5047584;28;20479;-77
2023/04/04 05:30:47;;;;;;;4.75;3.03;;;-2.70;1.00;;;;;;5023129;28;20507;-79
2023/04/04 05:33:18;;;;;;;6.60;2.72;;;-2.70;1.00;;;;;;5032630;28;20038;-77
2023/04/04 05:35:55;;;;;;;4.20;2.22;;;-2.60;1.00;;;;;;5033102;28;20049;-77
2023/04/04 05:38:21;;;;;;;8.77;5.82;;;-2.50;1.00;;;;;;5032915;28;20339;-76
2023/04/04 05:40:54;;;;;;;6.70;4.05;;;-2.50;1.00;;;;;;5030720;28;20494;-83
2023/04/04 05:43:22;;;;;;;2.45;1.83;;;-1.90;1.00;;;;;;5015099;28;20155;-77
2023/04/04 05:46:06;;;;;;;4.43;1.67;;;-0.80;1.00;;;;;;5043550;28;20030;-77
2023/04/04 05:48:40;;;;;;;4.55;1.38;;;0.40;1.00;;;;;;5023689;28;20041;-78
2023/04/04 05:51:08;;;;;;;3.15;2.10;;;0.70;99.90;;;;;;5023837;28;20042;-77
2023/04/04 05:53:44;;;;;;;4.53;1.80;;;0.90;99.90;;;;;;5031814;28;20049;-80
2023/04/04 05:56:14;;;;;;;4.28;1.45;;;1.10;99.90;;;;;;5034363;28;20402;-78
2023/04/04 05:58:41;;;;;;;4.97;1.45;;;1.90;99.90;;;;;;5031329;28;20044;-77
2023/04/04 06:01:09;;;;;;;4.03;1.75;;;2.50;99.90;;;;;;5027624;28;20040;-78
2023/04/04 06:03:36;;;;;;;4.93;1.55;;;3.20;99.90;;;;;;5024381;28;20041;-79
2023/04/04 06:06:06;;;;;;;3.25;1.55;;;3.60;99.90;;;;;;5030257;28;20047;-78
2023/04/04 06:08:33;;;;;;;3.20;1.20;;;3.90;99.90;;;;;;5017328;28;20056;-79
2023/04/04 06:10:59;;;;;;;3.40;1.35;;;4.50;99.90;;;;;;5026651;28;20041;-79
2023/04/04 06:13:25;;;;;;;3.05;1.25;;;5.00;99.90;;;;;;5039553;28;20045;-76
2023/04/04 06:15:56;;;;;;;4.65;3.22;;;5.50;99.90;;;;;;5028061;28;20060;-75
2023/04/04 06:18:23;;;;;;;8.63;4.60;;;6.40;93.10;;;;;;5029041;28;20048;-76
2023/04/04 06:20:49;;;;;;;5.45;3.15;;;7.50;81.00;;;;;;5042311;28;20486;-75
2023/04/04 06:23:16;;;;;;;7.97;4.03;;;8.30;55.10;;;;;;5027772;28;20049;-76
2023/04/04 06:25:46;;;;;;;17.05;10.73;;;7.70;45.50;;;;;;5014661;28;20045;-76
2023/04/04 06:28:16;;;;;;;8.98;5.32;;;7.50;42.60;;;;;;5034780;28;20052;-76
2023/04/04 06:30:45;;;;;;;9.50;5.32;;;7.70;41.80;;;;;;5027744;28;20057;-75
2023/04/04 06:33:13;;;;;;;6.78;4.80;;;8.50;40.80;;;;;;5029333;28;20474;-75
2023/04/04 06:35:44;;;;;;;4.90;2.72;;;9.00;33.70;;;;;;5027475;28;20380;-75
2023/04/04 06:38:10;;;;;;;5.47;4.25;;;8.80;30.20;;;;;;5028938;28;20489;-75
2023/04/04 06:40:36;;;;;;;4.57;1.45;;;8.70;30.60;;;;;;5027744;28;20436;-75
2023/04/04 06:43:03;;;;;;;3.28;2.17;;;8.30;31.90;;;;;;5027980;28;20430;-75
2023/04/04 06:45:37;;;;;;;2.63;1.60;;;7.40;35.00;;;;;;5021632;28;20053;-75
2023/04/04 06:48:04;;;;;;;3.80;1.70;;;8.60;32.50;;;;;;5044744;28;20048;-75
2023/04/04 06:50:32;;;;;;;2.63;1.35;;;9.10;29.90;;;;;;5023985;28;20502;-76
2023/04/04 06:53:01;;;;;;;2.88;1.48;;;8.20;31.10;;;;;;5041325;28;20041;-76
2023/04/04 06:55:28;;;;;;;3.97;2.30;;;8.00;31.40;;;;;;5024711;28;20054;-75
2023/04/04 06:57:54;;;;;;;3.10;1.35;;;8.40;31.00;;;;;;5024385;28;20034;-75
2023/04/04 07:00:21;;;;;;;5.05;1.23;;;8.40;28.80;;;;;;5028880;28;20033;-76
2023/04/04 07:02:47;;;;;;;6.85;3.63;;;8.00;31.00;;;;;;5024906;28;20034;-77
2023/04/04 07:05:16;;;;;;;4.55;1.65;;;8.10;30.10;;;;;;5027849;28;20040;-75
2023/04/04 07:07:45;;;;;;;5.55;2.45;;;8.10;29.30;;;;;;5030025;28;20044;-75
2023/04/04 07:10:11;;;;;;;2.20;1.40;;;8.70;28.30;;;;;;5026779;28;20040;-75
2023/04/04 07:12:37;;;;;;;2.15;1.25;;;8.90;28.60;;;;;;5027929;28;20132;-75
2023/04/04 07:15:03;;;;;;;3.95;1.77;;;9.50;27.40;;;;;;5026080;28;20045;-75
2023/04/04 07:17:30;;;;;;;5.32;2.22;;;9.50;25.70;;;;;;5026459;28;20045;-75
2023/04/04 07:19:56;;;;;;;5.22;2.10;;;9.80;25.10;;;;;;5025324;28;20033;-75
2023/04/04 07:22:22;;;;;;;4.18;2.22;;;10.10;23.90;;;;;;5026769;28;20030;-75
2023/04/04 07:24:49;;;;;;;5.10;1.30;;;9.50;24.50;;;;;;5019288;28;20439;-76
2023/04/04 07:27:15;;;;;;;3.58;1.08;;;9.20;25.10;;;;;;5027174;28;20026;-77
2023/04/04 07:29:41;;;;;;;4.05;1.95;;;8.90;25.40;;;;;;5020402;28;20395;-75
2023/04/04 07:32:07;;;;;;;4.43;2.60;;;9.10;24.50;;;;;;5025127;28;20391;-75
2023/04/04 07:34:33;;;;;;;4.03;1.80;;;9.70;25.70;;;;;;5025328;28;20034;-75
2023/04/04 07:36:59;;;;;;;5.35;2.22;;;9.40;22.80;;;;;;5032229;28;20029;-75
2023/04/04 07:39:26;;;;;;;4.07;1.02;;;9.80;22.40;;;;;;5028858;28;20030;-76
2023/04/04 07:41:52;;;;;;;7.20;1.80;;;8.80;24.20;;;;;;5042784;28;20386;-74
2023/04/04 07:44:18;;;;;;;1.90;0.90;;;8.00;25.40;;;;;;5029478;28;20056;-77
2023/04/04 07:46:44;;;;;;;3.05;1.88;;;8.40;24.90;;;;;;5018027;28;20025;-75
2023/04/04 07:49:11;;;;;;;3.10;1.80;;;8.80;26.20;;;;;;5027662;28;20058;-75
2023/04/04 07:51:38;;;;;;;5.88;1.65;;;8.70;22.80;;;;;;5029976;28;20050;-75
2023/04/04 07:54:05;;;;;;;3.42;1.38;;;8.40;23.30;;;;;;5024253;28;20056;-75
2023/04/04 07:56:31;;;;;;;3.05;1.30;;;8.70;24.10;;;;;;5024723;28;20044;-75
2023/04/04 07:58:57;;;;;;;2.47;1.13;;;7.80;25.50;;;;;;5037015;28;20030;-75
2023/04/04 08:01:23;;;;;;;4.32;1.48;;;8.50;24.70;;;;;;5026096;28;20036;-75
2023/04/04 08:03:52;;;;;;;1.80;1.08;;;8.70;22.40;;;;;;5025878;28;20459;-75
2023/04/04 08:06:18;;;;;;;6.82;1.33;;;9.10;22.60;;;;;;5030048;28;20300;-76
2023/04/04 08:08:46;;;;;;;6.53;1.58;;;8.50;24.30;;;;;;5034850;28;20025;-76
2023/04/04 08:11:12;;;;;;;4.32;2.25;;;7.40;28.40;;;;;;5027359;28;20355;-75
2023/04/04 08:13:38;;;;;;;3.97;1.67;;;8.60;24.90;;;;;;5027127;28;20033;-76
2023/04/04 08:16:05;;;;;;;2.72;1.17;;;9.10;22.40;;;;;;5026973;28;20025;-76
2023/04/04 08:18:31;;;;;;;6.32;1.58;;;9.30;21.70;;;;;;5026912;28;20034;-78
2023/04/04 08:20:57;;;;;;;2.85;1.30;;;9.70;20.70;;;;;;5029252;28;20029;-76
2023/04/04 08:23:24;;;;;;;4.90;1.60;;;9.70;20.00;;;;;;5028181;28;20459;-76
2023/04/04 08:25:50;;;;;;;7.82;4.47;;;9.80;19.60;;;;;;5031920;28;20025;-77
2023/04/04 08:28:16;;;;;;;2.42;1.40;;;9.50;19.10;;;;;;5030554;28;20025;-76
2023/04/04 08:30:42;;;;;;;7.57;3.28;;;8.90;20.80;;;;;;5029135;28;20032;-77
2023/04/04 08:33:09;;;;;;;3.10;1.50;;;8.70;20.70;;;;;;5032720;28;20034;-76
2023/04/04 08:35:35;;;;;;;3.67;1.55;;;8.30;21.30;;;;;;5030647;28;20493;-77
2023/04/04 08:38:04;;;;;;;4.35;2.38;;;8.00;22.40;;;;;;5032801;28;20048;-77
2023/04/04 08:40:31;;;;;;;3.50;1.50;;;8.60;19.70;;;;;;5025219;28;20045;-78
2023/04/04 08:42:58;;;;;;;3.95;1.60;;;8.50;18.50;;;;;;5027264;28;20054;-76
2023/04/04 08:45:27;;;;;;;4.25;2.25;;;9.10;20.60;;;;;;5027895;28;20025;-78
2023/04/04 08:47:54;;;;;;;4.18;1.92;;;9.80;16.10;;;;;;5029911;28;20364;-76
2023/04/04 08:50:20;;;;;;;3.70;1.40;;;9.00;17.60;;;;;;5029992;28;20033;-76
2023/04/04 08:52:47;;;;;;;8.90;2.17;;;8.70;18.30;;;;;;5030792;28;20054;-76
2023/04/04 08:55:14;;;;;;;17.30;8.40;;;8.90;18.70;;;;;;5032427;28;20057;-76
2023/04/04 08:57:41;;;;;;;2.97;1.40;;;9.50;16.90;;;;;;5031398;28;20025;-77
2023/04/04 09:00:07;;;;;;;4.32;0.80;;;9.00;18.20;;;;;;5030150;28;20368;-83
2023/04/04 09:02:52;;;;;;;4.80;1.98;;;7.80;20.50;;;;;;5034338;28;20037;-77
2023/04/04 09:05:20;;;;;;;13.70;6.97;;;8.50;18.50;;;;;;5033478;28;20042;-75
2023/04/04 09:07:46;;;;;;;18.50;10.43;;;8.80;17.30;;;;;;5024666;28;20113;-78
2023/04/04 09:10:12;;;;;;;6.07;1.80;;;9.40;17.00;;;;;;5030037;28;20034;-79
2023/04/04 09:12:43;;;;;;;4.53;2.55;;;9.20;17.30;;;;;;5031200;28;20033;-78
2023/04/04 09:15:09;;;;;;;5.55;2.75;;;9.20;17.50;;;;;;5032816;28;20037;-77
2023/04/04 09:17:36;;;;;;;3.13;1.20;;;9.20;18.70;;;;;;5029510;28;20037;-79
2023/04/04 09:20:06;;;;;;;4.20;1.27;;;8.50;18.80;;;;;;5028184;28;20037;-84
2023/04/04 09:22:32;;;;;;;1.77;0.80;;;9.50;17.80;;;;;;5030186;28;20061;-79
2023/04/04 09:24:58;;;;;;;5.90;3.05;;;8.40;18.90;;;;;;5031109;28;20052;-77
2023/04/04 09:27:25;;;;;;;3.13;1.80;;;9.10;17.60;;;;;;5033329;28;20034;-78
2023/04/04 09:29:51;;;;;;;5.07;1.25;;;9.70;16.80;;;;;;5015874;28;20030;-77
2023/04/04 09:32:21;;;;;;;1.98;1.02;;;8.80;18.30;;;;;;5024459;28;20034;-78
2023/04/04 09:34:48;;;;;;;3.58;0.90;;;9.50;15.80;;;;;;5030740;28;20040;-77
2023/04/04 09:37:16;;;;;;;5.70;1.90;;;9.30;17.30;;;;;;5033494;28;20402;-78
2023/04/04 09:39:43;;;;;;;4.57;1.73;;;10.40;16.20;;;;;;5025573;28;20030;-80
2023/04/04 09:42:10;;;;;;;4.03;1.15;;;10.70;15.10;;;;;;5013706;28;20041;-79
2023/04/04 09:44:37;;;;;;;5.32;2.13;;;10.40;14.30;;;;;;5016396;28;20030;-78
2023/04/04 09:47:26;;;;;;;3.80;0.95;;;9.90;14.80;;;;;;5037865;28;20033;-89
2023/04/04 09:49:59;;;;;;;2.50;1.17;;;9.60;14.60;;;;;;5049785;28;20403;-79
2023/04/04 09:52:26;;;;;;;4.70;1.70;;;9.00;18.10;;;;;;5029479;28;20026;-77
2023/04/04 09:54:58;;;;;;;2.53;1.35;;;9.50;15.60;;;;;;5027229;28;20029;-77
2023/04/04 09:57:33;;;;;;;7.43;4.13;;;9.80;16.00;;;;;;5025783;28;21296;-78
2023/04/04 10:00:01;;;;;;;2.80;1.10;;;10.10;14.90;;;;;;5024889;28;20033;-78
2023/04/04 10:02:30;;;;;;;4.35;1.73;;;9.30;15.70;;;;;;5027697;28;20038;-78
2023/04/04 10:04:56;;;;;;;3.97;1.75;;;9.40;16.80;;;;;;5035954;28;20037;-77
2023/04/04 10:07:27;;;;;;;4.45;2.88;;;9.90;16.10;;;;;;5026255;28;20609;-77
2023/04/04 10:09:55;;;;;;;4.68;1.67;;;9.40;16.00;;;;;;5027566;28;20041;-77
2023/04/04 10:12:24;;;;;;;5.32;2.83;;;8.70;16.70;;;;;;5024207;28;20034;-80
2023/04/04 10:15:00;;;;;;;3.20;1.60;;;7.70;18.20;;;;;;5028272;28;20038;-78
2023/04/04 10:17:35;;;;;;;3.80;1.40;;;7.70;19.30;;;;;;5028940;28;20065;-77
2023/04/04 10:20:06;;;;;;;4.97;2.03;;;7.50;22.60;;;;;;5030435;28;20660;-76
2023/04/04 10:22:33;;;;;;;4.15;2.10;;;7.40;20.60;;;;;;5027780;28;20057;-76
2023/04/04 10:24:59;;;;;;;2.78;1.30;;;7.10;21.10;;;;;;5027212;28;20375;-76
2023/04/04 10:27:26;;;;;;;5.53;1.33;;;7.30;21.70;;;;;;5030776;28;20029;-77
2023/04/04 10:29:52;;;;;;;6.10;1.83;;;7.40;21.20;;;;;;5030364;28;20037;-76
2023/04/04 10:32:25;;;;;;;2.85;1.08;;;7.50;21.50;;;;;;5029175;28;20036;-77
2023/04/04 10:35:09;;;;;;;2.72;0.90;;;7.50;19.60;;;;;;5018717;28;20037;-79
2023/04/04 10:37:51;;;;;;;1.60;0.90;;;7.20;20.80;;;;;;5026185;28;20038;-77
2023/04/04 10:40:20;;;;;;;4.20;1.25;;;7.50;21.30;;;;;;5014191;28;20051;-76
2023/04/04 10:42:49;;;;;;;3.90;1.42;;;7.80;20.40;;;;;;5032639;28;20041;-76
2023/04/04 10:45:16;;;;;;;4.07;1.48;;;7.40;20.10;;;;;;5030265;28;20042;-76
2023/04/04 10:47:43;;;;;;;2.65;1.20;;;7.30;21.50;;;;;;5025424;28;20037;-78
2023/04/04 10:50:11;;;;;;;3.35;1.50;;;7.30;21.60;;;;;;5021310;28;20033;-78
2023/04/04 10:52:41;;;;;;;3.22;1.30;;;7.40;21.80;;;;;;5020681;28;20038;-77
2023/04/04 10:55:10;;;;;;;2.10;1.38;;;7.50;22.40;;;;;;5019997;28;20037;-83
2023/04/04 10:57:41;;;;;;;3.72;1.60;;;7.50;21.30;;;;;;5025844;28;20038;-77
2023/04/04 11:00:13;;;;;;;2.47;1.20;;;7.60;21.40;;;;;;5022875;28;20030;-82
2023/04/04 11:02:58;;;;;;;3.22;1.45;;;7.60;21.30;;;;;;5021767;28;20037;-77
2023/04/04 11:05:36;;;;;;;2.30;1.27;;;7.70;21.00;;;;;;5026999;28;20041;-77
2023/04/04 11:08:09;;;;;;;3.70;1.55;;;8.10;21.70;;;;;;5027857;28;20037;-76
2023/04/04 11:10:44;;;;;;;2.97;1.13;;;7.70;21.10;;;;;;5024976;28;20041;-77
2023/04/04 11:13:15;;;;;;;2.58;1.10;;;7.50;21.40;;;;;;5024689;28;20053;-78
2023/04/04 11:16:06;;;;;;;2.83;0.93;;;7.50;20.80;;;;;;5018406;28;20042;-78
2023/04/04 11:18:39;;;;;;;2.05;0.85;;;7.80;20.20;;;;;;5026476;28;20152;-78
2023/04/04 11:21:25;;;;;;;5.80;1.30;;;7.70;20.50;;;;;;5021038;28;20048;-75
2023/04/04 11:23:51;;;;;;;2.00;1.05;;;7.50;21.70;;;;;;5030942;28;20136;-76
2023/04/04 11:26:29;;;;;;;2.45;1.20;;;8.00;20.60;;;;;;5026747;28;20044;-78
2023/04/04 11:28:57;;;;;;;4.32;1.48;;;8.10;20.00;;;;;;5024373;28;20498;-78
2023/04/04 11:31:33;;;;;;;5.43;1.70;;;7.90;20.00;;;;;;5012896;28;20030;-77
2023/04/04 11:34:07;;;;;;;3.08;1.17;;;7.90;21.60;;;;;;5013739;28;20045;-76
2023/04/04 11:36:36;;;;;;;2.25;1.20;;;7.80;21.30;;;;;;5029840;28;20037;-79
2023/04/04 11:39:29;;;;;;;3.50;1.42;;;7.70;20.30;;;;;;5034295;28;20041;-74
2023/04/04 11:42:04;;;;;;;2.97;1.13;;;7.60;21.30;;;;;;5027438;28;20044;-77
2023/04/04 11:44:32;;;;;;;2.55;1.10;;;7.50;21.10;;;;;;5021942;28;20033;-76
2023/04/04 11:47:09;;;;;;;2.63;1.00;;;7.70;22.20;;;;;;5030594;28;20041;-76
2023/04/04 11:49:40;;;;;;;3.10;1.58;;;7.80;20.60;;;;;;5020192;28;20033;-77
2023/04/04 11:52:08;;;;;;;3.38;1.35;;;7.90;21.10;;;;;;5027942;28;20382;-76
2023/04/04 11:54:39;;;;;;;3.13;1.35;;;8.00;21.50;;;;;;5028257;28;20034;-77
2023/04/04 11:57:06;;;;;;;6.13;1.23;;;8.20;21.70;;;;;;5028380;28;20045;-75
2023/04/04 11:59:33;;;;;;;4.10;1.73;;;8.20;19.90;;;;;;5030363;28;20049;-79
2023/04/04 12:02:01;;;;;;;3.83;1.83;;;8.50;21.20;;;;;;5029555;28;20510;-77
2023/04/04 12:04:28;;;;;;;3.35;1.25;;;8.70;22.10;;;;;;5032709;28;20294;-76
2023/04/04 12:06:55;;;;;;;2.10;1.20;;;8.40;19.50;;;;;;5033063;28;20041;-76
2023/04/04 12:09:24;;;;;;;3.92;1.92;;;8.30;20.90;;;;;;5029922;28;20045;-75
2023/04/04 12:11:51;;;;;;;2.17;1.60;;;8.40;19.90;;;;;;5023864;28;20040;-76
2023/04/04 12:14:18;;;;;;;3.17;1.20;;;8.30;21.10;;;;;;5032741;28;20059;-76
2023/04/04 12:16:48;;;;;;;2.58;1.13;;;8.60;20.60;;;;;;5032177;28;20410;-77
2023/04/04 12:19:15;;;;;;;4.20;1.48;;;8.60;19.90;;;;;;5032312;28;20036;-77
2023/04/04 12:21:41;;;;;;;3.78;1.25;;;8.60;21.10;;;;;;5031142;28;20041;-77
2023/04/04 12:24:08;;;;;;;5.65;1.55;;;8.60;19.80;;;;;;5028879;28;20046;-78
2023/04/04 12:26:37;;;;;;;3.08;1.35;;;8.50;20.80;;;;;;5026978;28;20398;-79
2023/04/04 12:29:04;;;;;;;3.60;1.50;;;8.80;21.10;;;;;;5039723;28;20029;-78
2023/04/04 12:31:31;;;;;;;4.32;1.50;;;8.70;20.70;;;;;;5027226;28;20417;-77
2023/04/04 12:33:58;;;;;;;4.28;1.77;;;8.70;19.20;;;;;;5025559;28;20305;-77
2023/04/04 12:36:25;;;;;;;2.13;1.20;;;8.50;20.10;;;;;;5032239;28;20045;-76
2023/04/04 12:39:11;;;;;;;2.38;1.20;;;8.60;20.00;;;;;;5032176;28;20494;-76
2023/04/04 12:42:07;;;;;;;3.30;1.45;;;8.70;20.50;;;;;;5026957;28;20391;-77
2023/04/04 12:44:36;;;;;;;2.08;1.13;;;8.90;19.90;;;;;;5029396;28;20045;-76
2023/04/04 12:47:05;;;;;;;7.30;2.03;;;8.80;20.00;;;;;;5016161;28;20422;-76
2023/04/04 12:49:38;;;;;;;2.10;1.27;;;8.90;19.60;;;;;;5030274;28;20033;-78
2023/04/04 12:52:15;;;;;;;3.50;1.38;;;8.90;20.00;;;;;;5030833;28;20025;-78
2023/04/04 12:54:42;;;;;;;3.67;1.42;;;9.00;19.60;;;;;;5036623;28;20048;-78
2023/04/04 12:57:11;;;;;;;2.47;0.90;;;8.90;19.20;;;;;;5032858;28;20368;-77
2023/04/04 12:59:38;;;;;;;4.70;1.73;;;8.90;20.50;;;;;;5031081;28;20029;-79
2023/04/04 13:02:11;;;;;;;3.90;1.55;;;8.60;20.20;;;;;;5030494;28;20386;-76
2023/04/04 13:04:38;;;;;;;3.47;1.30;;;8.80;20.30;;;;;;5031982;28;20056;-79